This is the latest recevied weather packets stored in our database for station/object EA3ABN-15. If no packets are shown the sender has not sent any weather packets the latest 10 day(s).
| Time | Temp. | Humidity | Pressure | Rain* | Wind** | Luminosity | Snow |
|---|---|---|---|---|---|---|---|
| 1777582316 | 16.67° C | 55% | 1059.2 hPa | - | - | - | - |
| 1777581416 | 16.67° C | 55% | 1059.1 hPa | - | - | - | - |
| 1777580516 | 17.22° C | 54% | 1059 hPa | - | - | - | - |
| 1777579616 | 17.22° C | 57% | 1058.9 hPa | - | - | - | - |
| 1777578716 | 17.78° C | 58% | 1058.7 hPa | - | - | - | - |
| 1777577816 | 17.78° C | 57% | 1058.5 hPa | - | - | - | - |
| 1777576915 | 18.33° C | 53% | 1058.2 hPa | - | - | - | - |
| 1777576015 | 18.33° C | 52% | 1058 hPa | - | - | - | - |
| 1777575115 | 18.33° C | 50% | 1057.8 hPa | - | - | - | - |
| 1777574215 | 18.89° C | 46% | 1057.6 hPa | - | - | - | - |
| 1777573315 | 19.44° C | 45% | 1057.3 hPa | - | - | - | - |
| 1777572415 | 19.44° C | 45% | 1057.3 hPa | - | - | - | - |
| 1777571515 | 20° C | 45% | 1057.1 hPa | - | - | - | - |
| 1777570615 | 20° C | 45% | 1056.9 hPa | - | - | - | - |
| 1777569715 | 20° C | 43% | 1056.8 hPa | - | - | - | - |
| 1777568815 | 20° C | 44% | 1056.8 hPa | - | - | - | - |
| 1777567915 | 20° C | 42% | 1056.8 hPa | - | - | - | - |
| 1777567014 | 20° C | 42% | 1056.9 hPa | - | - | - | - |
| 1777566114 | 20.56° C | 45% | 1057 hPa | - | - | - | - |
| 1777565214 | 20.56° C | 45% | 1057 hPa | - | - | - | - |
| 1777564314 | 20.56° C | 45% | 1057 hPa | - | - | - | - |
| 1777563414 | 20.56° C | 45% | 1056.9 hPa | - | - | - | - |
| 1777562513 | 20.56° C | 45% | 1056.8 hPa | - | - | - | - |
| 1777561615 | 20.56° C | 45% | 1056.8 hPa | - | - | - | - |
| 1777560715 | 20.56° C | 45% | 1056.8 hPa | - | - | - | - |
* Rain since midnight (hover to see other rain measurements)
** Current wind speed in m/s (hover to see current wind gust speed)